sensor_id;sensor_type;location;lat;lon;timestamp;temperature;humidity
71291;DHT22;59073;51.994;4.448;2022-08-21T04:20:51;17.36;78.49
71291;DHT22;59073;51.994;4.448;2022-08-21T05:28:38;21.64;66.67
71291;DHT22;59073;51.994;4.448;2022-08-21T05:31:04;21.86;65.39
71291;DHT22;59073;51.994;4.448;2022-08-21T05:33:38;22.13;65.26
71291;DHT22;59073;51.994;4.448;2022-08-21T05:36:11;22.43;63.92
71291;DHT22;59073;51.994;4.448;2022-08-21T05:38:36;22.65;63.75
71291;DHT22;59073;51.994;4.448;2022-08-21T05:41:04;22.75;63.48
71291;DHT22;59073;51.994;4.448;2022-08-21T05:43:56;22.71;63.85
71291;DHT22;59073;51.994;4.448;2022-08-21T05:46:45;22.73;64.46
71291;DHT22;59073;51.994;4.448;2022-08-21T05:49:11;23.01;63.60
71291;DHT22;59073;51.994;4.448;2022-08-21T05:51:40;23.18;63.42
71291;DHT22;59073;51.994;4.448;2022-08-21T05:54:05;23.51;62.39
71291;DHT22;59073;51.994;4.448;2022-08-21T05:56:31;23.80;61.52
71291;DHT22;59073;51.994;4.448;2022-08-21T05:59:01;23.83;61.61
71291;DHT22;59073;51.994;4.448;2022-08-21T06:01:30;24.07;61.02
71291;DHT22;59073;51.994;4.448;2022-08-21T06:03:55;24.17;61.12
71291;DHT22;59073;51.994;4.448;2022-08-21T06:06:20;24.31;60.58
71291;DHT22;59073;51.994;4.448;2022-08-21T06:08:46;24.54;60.39
71291;DHT22;59073;51.994;4.448;2022-08-21T06:11:12;24.72;59.49
71291;DHT22;59073;51.994;4.448;2022-08-21T06:13:37;24.73;59.68
71291;DHT22;59073;51.994;4.448;2022-08-21T06:16:12;24.51;59.95
71291;DHT22;59073;51.994;4.448;2022-08-21T06:18:39;24.72;59.70
71291;DHT22;59073;51.994;4.448;2022-08-21T06:21:06;24.86;59.73
71291;DHT22;59073;51.994;4.448;2022-08-21T06:23:33;25.36;58.79
71291;DHT22;59073;51.994;4.448;2022-08-21T06:26:03;25.80;57.33
71291;DHT22;59073;51.994;4.448;2022-08-21T06:28:30;25.78;57.30
71291;DHT22;59073;51.994;4.448;2022-08-21T06:30:55;25.74;57.46
71291;DHT22;59073;51.994;4.448;2022-08-21T06:33:21;25.84;56.83
71291;DHT22;59073;51.994;4.448;2022-08-21T06:35:47;25.91;56.67
71291;DHT22;59073;51.994;4.448;2022-08-21T06:38:13;26.17;56.54
71291;DHT22;59073;51.994;4.448;2022-08-21T06:40:40;26.15;56.40
71291;DHT22;59073;51.994;4.448;2022-08-21T06:43:13;26.38;56.29
71291;DHT22;59073;51.994;4.448;2022-08-21T06:45:42;26.35;56.44
71291;DHT22;59073;51.994;4.448;2022-08-21T06:48:11;26.33;56.77
71291;DHT22;59073;51.994;4.448;2022-08-21T06:50:36;25.85;57.28
71291;DHT22;59073;51.994;4.448;2022-08-21T07:23:22;23.25;67.54
71291;DHT22;59073;51.994;4.448;2022-08-21T07:41:33;24.25;64.47
71291;DHT22;59073;51.994;4.448;2022-08-21T07:44:10;24.13;64.53
71291;DHT22;59073;51.994;4.448;2022-08-21T07:46:35;24.23;65.22
71291;DHT22;59073;51.994;4.448;2022-08-21T07:49:01;24.55;64.29
71291;DHT22;59073;51.994;4.448;2022-08-21T07:51:35;24.67;63.09
71291;DHT22;59073;51.994;4.448;2022-08-21T07:54:48;25.13;62.94
71291;DHT22;59073;51.994;4.448;2022-08-21T07:57:20;25.59;62.31
71291;DHT22;59073;51.994;4.448;2022-08-21T07:59:45;25.85;61.25
71291;DHT22;59073;51.994;4.448;2022-08-21T08:02:39;25.82;60.33
71291;DHT22;59073;51.994;4.448;2022-08-21T08:05:09;25.18;61.32
71291;DHT22;59073;51.994;4.448;2022-08-21T08:07:38;24.69;61.67
71291;DHT22;59073;51.994;4.448;2022-08-21T08:10:06;24.71;63.67
71291;DHT22;59073;51.994;4.448;2022-08-21T08:12:37;25.05;62.55
71291;DHT22;59073;51.994;4.448;2022-08-21T08:15:04;25.32;60.96
71291;DHT22;59073;51.994;4.448;2022-08-21T08:17:30;25.60;62.54
71291;DHT22;59073;51.994;4.448;2022-08-21T08:19:57;25.63;61.01
71291;DHT22;59073;51.994;4.448;2022-08-21T08:22:23;25.12;61.24
71291;DHT22;59073;51.994;4.448;2022-08-21T08:24:50;24.71;62.57
71291;DHT22;59073;51.994;4.448;2022-08-21T08:27:17;24.61;62.40
71291;DHT22;59073;51.994;4.448;2022-08-21T08:29:47;24.28;63.74
71291;DHT22;59073;51.994;4.448;2022-08-21T08:32:18;24.37;63.09
71291;DHT22;59073;51.994;4.448;2022-08-21T08:34:48;24.79;62.36
71291;DHT22;59073;51.994;4.448;2022-08-21T08:37:17;25.26;61.05
71291;DHT22;59073;51.994;4.448;2022-08-21T08:39:43;25.42;61.66
71291;DHT22;59073;51.994;4.448;2022-08-21T08:42:13;25.70;60.53
71291;DHT22;59073;51.994;4.448;2022-08-21T08:45:02;26.06;60.31
71291;DHT22;59073;51.994;4.448;2022-08-21T08:47:38;26.33;58.22
71291;DHT22;59073;51.994;4.448;2022-08-21T08:53:18;26.43;57.76
71291;DHT22;59073;51.994;4.448;2022-08-21T09:04:01;26.21;58.45
71291;DHT22;59073;51.994;4.448;2022-08-21T09:26:49;25.16;58.96
71291;DHT22;59073;51.994;4.448;2022-08-21T09:29:39;25.12;57.62
71291;DHT22;59073;51.994;4.448;2022-08-21T09:32:21;25.29;58.15
71291;DHT22;59073;51.994;4.448;2022-08-21T09:35:25;25.30;59.53
71291;DHT22;59073;51.994;4.448;2022-08-21T09:38:37;25.88;57.24
71291;DHT22;59073;51.994;4.448;2022-08-21T09:41:24;25.67;55.63
71291;DHT22;59073;51.994;4.448;2022-08-21T09:44:08;25.13;58.89
71291;DHT22;59073;51.994;4.448;2022-08-21T09:46:51;24.52;61.10
71291;DHT22;59073;51.994;4.448;2022-08-21T09:53:27;24.51;64.97
71291;DHT22;59073;51.994;4.448;2022-08-21T10:09:45;25.20;59.63
71291;DHT22;59073;51.994;4.448;2022-08-21T10:12:33;24.86;58.53
71291;DHT22;59073;51.994;4.448;2022-08-21T11:03:00;28.26;48.76
71291;DHT22;59073;51.994;4.448;2022-08-21T11:48:38;28.08;47.79
71291;DHT22;59073;51.994;4.448;2022-08-21T11:51:21;28.20;46.88
71291;DHT22;59073;51.994;4.448;2022-08-21T11:56:45;28.26;45.90
71291;DHT22;59073;51.994;4.448;2022-08-21T11:59:19;27.63;46.47
71291;DHT22;59073;51.994;4.448;2022-08-21T12:01:50;27.10;46.61
71291;DHT22;59073;51.994;4.448;2022-08-21T12:04:29;26.78;48.01
71291;DHT22;59073;51.994;4.448;2022-08-21T12:06:56;27.01;50.26
71291;DHT22;59073;51.994;4.448;2022-08-21T12:12:10;27.06;49.28
71291;DHT22;59073;51.994;4.448;2022-08-21T12:24:50;26.72;49.16
71291;DHT22;59073;51.994;4.448;2022-08-21T12:33:40;27.24;47.16
71291;DHT22;59073;51.994;4.448;2022-08-21T12:36:21;26.76;48.29
71291;DHT22;59073;51.994;4.448;2022-08-21T13:10:39;26.52;48.98
71291;DHT22;59073;51.994;4.448;2022-08-21T13:14:03;26.36;49.26
71291;DHT22;59073;51.994;4.448;2022-08-21T13:23:48;26.56;48.37
71291;DHT22;59073;51.994;4.448;2022-08-21T13:36:35;26.82;45.08
71291;DHT22;59073;51.994;4.448;2022-08-21T13:43:22;26.86;47.01
71291;DHT22;59073;51.994;4.448;2022-08-21T13:56:50;26.00;47.72
71291;DHT22;59073;51.994;4.448;2022-08-21T15:20:46;24.71;56.91
71291;DHT22;59073;51.994;4.448;2022-08-21T15:37:56;24.86;56.41
71291;DHT22;59073;51.994;4.448;2022-08-21T15:40:54;24.50;56.94
71291;DHT22;59073;51.994;4.448;2022-08-21T15:43:26;24.48;57.09
71291;DHT22;59073;51.994;4.448;2022-08-21T15:45:54;24.50;55.60
71291;DHT22;59073;51.994;4.448;2022-08-21T15:48:20;24.11;58.12
71291;DHT22;59073;51.994;4.448;2022-08-21T15:50:46;23.97;57.77
71291;DHT22;59073;51.994;4.448;2022-08-21T15:53:11;23.56;58.02
71291;DHT22;59073;51.994;4.448;2022-08-21T15:59:12;23.53;57.96
71291;DHT22;59073;51.994;4.448;2022-08-21T16:05:31;23.55;58.72
71291;DHT22;59073;51.994;4.448;2022-08-21T16:11:32;23.99;58.36
71291;DHT22;59073;51.994;4.448;2022-08-21T16:14:16;24.16;58.01
71291;DHT22;59073;51.994;4.448;2022-08-21T16:17:08;24.41;58.10
71291;DHT22;59073;51.994;4.448;2022-08-21T16:22:55;24.65;56.62
71291;DHT22;59073;51.994;4.448;2022-08-21T16:29:00;24.28;57.49
71291;DHT22;59073;51.994;4.448;2022-08-21T16:31:25;24.32;56.92
71291;DHT22;59073;51.994;4.448;2022-08-21T16:33:56;24.23;57.66
71291;DHT22;59073;51.994;4.448;2022-08-21T16:36:26;24.28;58.38
71291;DHT22;59073;51.994;4.448;2022-08-21T16:38:53;24.38;59.11
71291;DHT22;59073;51.994;4.448;2022-08-21T16:41:21;24.35;57.53
71291;DHT22;59073;51.994;4.448;2022-08-21T16:43:49;24.38;59.08
71291;DHT22;59073;51.994;4.448;2022-08-21T16:46:25;24.42;58.10
71291;DHT22;59073;51.994;4.448;2022-08-21T16:48:51;24.34;58.96
71291;DHT22;59073;51.994;4.448;2022-08-21T16:51:16;24.27;58.20
71291;DHT22;59073;51.994;4.448;2022-08-21T16:53:50;24.25;58.77
71291;DHT22;59073;51.994;4.448;2022-08-21T16:56:16;24.28;58.61
71291;DHT22;59073;51.994;4.448;2022-08-21T16:58:46;24.37;59.11
71291;DHT22;59073;51.994;4.448;2022-08-21T17:01:18;24.28;59.04
71291;DHT22;59073;51.994;4.448;2022-08-21T17:03:46;24.23;58.49
71291;DHT22;59073;51.994;4.448;2022-08-21T17:13:33;24.14;58.47
71291;DHT22;59073;51.994;4.448;2022-08-21T18:22:10;22.26;63.35
71291;DHT22;59073;51.994;4.448;2022-08-21T18:25:13;22.22;62.83
71291;DHT22;59073;51.994;4.448;2022-08-21T18:27:50;22.30;61.87
71291;DHT22;59073;51.994;4.448;2022-08-21T19:18:32;21.85;66.17
71291;DHT22;59073;51.994;4.448;2022-08-21T19:21:23;21.75;66.32
71291;DHT22;59073;51.994;4.448;2022-08-21T19:24:10;21.58;66.50
71291;DHT22;59073;51.994;4.448;2022-08-21T19:26:42;21.55;65.94
71291;DHT22;59073;51.994;4.448;2022-08-21T19:29:18;21.55;65.38
71291;DHT22;59073;51.994;4.448;2022-08-21T19:32:16;21.59;65.82
71291;DHT22;59073;51.994;4.448;2022-08-21T19:34:47;21.62;65.71
71291;DHT22;59073;51.994;4.448;2022-08-21T19:38:10;21.61;65.76
71291;DHT22;59073;51.994;4.448;2022-08-21T19:44:54;21.58;66.52
71291;DHT22;59073;51.994;4.448;2022-08-21T19:47:49;21.59;66.88
71291;DHT22;59073;51.994;4.448;2022-08-21T19:50:26;21.59;67.28
71291;DHT22;59073;51.994;4.448;2022-08-21T19:52:52;21.58;67.43
71291;DHT22;59073;51.994;4.448;2022-08-21T19:55:23;21.51;67.29
71291;DHT22;59073;51.994;4.448;2022-08-21T19:58:00;21.54;67.72
71291;DHT22;59073;51.994;4.448;2022-08-21T20:00:46;21.55;69.43
71291;DHT22;59073;51.994;4.448;2022-08-21T20:03:43;21.55;69.33
71291;DHT22;59073;51.994;4.448;2022-08-21T20:09:56;21.66;67.33
71291;DHT22;59073;51.994;4.448;2022-08-21T20:12:38;21.61;67.06
71291;DHT22;59073;51.994;4.448;2022-08-21T20:15:41;21.54;66.51
71291;DHT22;59073;51.994;4.448;2022-08-21T20:21:23;21.59;65.31
71291;DHT22;59073;51.994;4.448;2022-08-21T20:23:54;21.61;65.11
71291;DHT22;59073;51.994;4.448;2022-08-21T20:26:51;21.58;65.87
71291;DHT22;59073;51.994;4.448;2022-08-21T20:29:35;21.59;65.63
71291;DHT22;59073;51.994;4.448;2022-08-21T20:32:10;21.59;65.66
71291;DHT22;59073;51.994;4.448;2022-08-21T20:35:02;21.64;65.12
71291;DHT22;59073;51.994;4.448;2022-08-21T20:37:40;21.59;64.86
71291;DHT22;59073;51.994;4.448;2022-08-21T20:40:34;21.57;64.92
71291;DHT22;59073;51.994;4.448;2022-08-21T20:43:41;21.54;65.12
71291;DHT22;59073;51.994;4.448;2022-08-21T20:46:15;21.58;65.12
71291;DHT22;59073;51.994;4.448;2022-08-21T20:59:25;21.52;66.93
71291;DHT22;59073;51.994;4.448;2022-08-21T21:02:03;21.37;68.29
71291;DHT22;59073;51.994;4.448;2022-08-21T21:04:49;21.21;66.57
71291;DHT22;59073;51.994;4.448;2022-08-21T21:07:23;21.08;66.40
71291;DHT22;59073;51.994;4.448;2022-08-21T21:09:51;21.08;66.46
71291;DHT22;59073;51.994;4.448;2022-08-21T21:12:38;21.20;68.64
71291;DHT22;59073;51.994;4.448;2022-08-21T21:15:13;21.11;68.03
71291;DHT22;59073;51.994;4.448;2022-08-21T21:17:56;21.08;67.61
71291;DHT22;59073;51.994;4.448;2022-08-21T21:20:34;21.08;67.29
71291;DHT22;59073;51.994;4.448;2022-08-21T21:23:15;21.15;67.53
71291;DHT22;59073;51.994;4.448;2022-08-21T21:25:55;21.17;67.51
71291;DHT22;59073;51.994;4.448;2022-08-21T21:28:32;21.21;67.49
71291;DHT22;59073;51.994;4.448;2022-08-21T21:31:00;21.24;67.49
71291;DHT22;59073;51.994;4.448;2022-08-21T21:33:26;21.21;67.46
71291;DHT22;59073;51.994;4.448;2022-08-21T21:35:58;21.21;67.75
71291;DHT22;59073;51.994;4.448;2022-08-21T21:38:35;21.14;67.89
71291;DHT22;59073;51.994;4.448;2022-08-21T21:41:20;21.11;68.20
71291;DHT22;59073;51.994;4.448;2022-08-21T22:01:10;20.92;68.56
71291;DHT22;59073;51.994;4.448;2022-08-21T22:03:50;20.93;68.85
71291;DHT22;59073;51.994;4.448;2022-08-21T22:13:08;20.96;67.73
71291;DHT22;59073;51.994;4.448;2022-08-21T22:15:37;20.97;67.66
71291;DHT22;59073;51.994;4.448;2022-08-21T22:18:07;20.99;67.61
71291;DHT22;59073;51.994;4.448;2022-08-21T22:20:44;20.93;67.50
71291;DHT22;59073;51.994;4.448;2022-08-21T22:23:21;20.93;67.87
71291;DHT22;59073;51.994;4.448;2022-08-21T22:25:53;21.03;67.91
71291;DHT22;59073;51.994;4.448;2022-08-21T22:28:23;21.07;67.24
71291;DHT22;59073;51.994;4.448;2022-08-21T22:31:09;21.07;67.27
71291;DHT22;59073;51.994;4.448;2022-08-21T22:33:34;20.97;67.99
71291;DHT22;59073;51.994;4.448;2022-08-21T22:36:17;20.94;67.52
71291;DHT22;59073;51.994;4.448;2022-08-21T22:38:44;20.97;67.48
71291;DHT22;59073;51.994;4.448;2022-08-21T22:41:37;20.90;67.52
71291;DHT22;59073;51.994;4.448;2022-08-21T22:44:06;20.90;67.68
71291;DHT22;59073;51.994;4.448;2022-08-21T22:46:41;20.84;67.48
71291;DHT22;59073;51.994;4.448;2022-08-21T22:54:54;20.79;67.71
71291;DHT22;59073;51.994;4.448;2022-08-21T22:57:26;20.79;68.17
71291;DHT22;59073;51.994;4.448;2022-08-21T23:02:43;20.77;68.23
71291;DHT22;59073;51.994;4.448;2022-08-21T23:05:21;20.59;69.19
71291;DHT22;59073;51.994;4.448;2022-08-21T23:07:48;20.48;69.39
71291;DHT22;59073;51.994;4.448;2022-08-21T23:10:33;20.51;69.38
71291;DHT22;59073;51.994;4.448;2022-08-21T23:13:12;20.51;69.59
71291;DHT22;59073;51.994;4.448;2022-08-21T23:16:09;20.49;69.85
71291;DHT22;59073;51.994;4.448;2022-08-21T23:21:41;20.43;70.55
71291;DHT22;59073;51.994;4.448;2022-08-21T23:24:39;20.39;70.53
71291;DHT22;59073;51.994;4.448;2022-08-21T23:27:38;20.43;69.86
71291;DHT22;59073;51.994;4.448;2022-08-21T23:30:17;20.45;69.20
71291;DHT22;59073;51.994;4.448;2022-08-21T23:35:33;20.48;69.07
71291;DHT22;59073;51.994;4.448;2022-08-21T23:40:55;20.29;70.73
71291;DHT22;59073;51.994;4.448;2022-08-21T23:46:39;20.21;71.02
71291;DHT22;59073;51.994;4.448;2022-08-21T23:52:18;20.41;69.21
71291;DHT22;59073;51.994;4.448;2022-08-21T23:57:57;20.31;69.25
